Aviation Digital Data Service (ADDS)

Output produced by METARs form (1325 UTC 12 April 2021)
found at http://www.aviationweather.gov/metar/data/
 
METAR text: CYYF 121300Z 33005KT 330V040 15SM BKN100 M01/M07 A3037 RMK AC7 SLP297
Conditions at: CYYF (PENTICTON AIRPOR, BC, CA) observed 1300 UTC 12 April 2021
Temperature: -1.0°C (30°F)
Dewpoint: -7.0°C (19°F) [RH = 64%]
Pressure (altimeter): 30.37 inches Hg (1028.5 mb)
[Sea-level pressure: 1029.7 mb]
Winds: from the NNW (330 degrees) at 6 MPH (5 knots; 2.6 m/s)
Visibility: 15 miles (24 km)
Ceiling: 10000 feet AGL
Clouds: broken clouds at 10000 feet AGL
Weather: no significant weather observed at this time

METAR text: CYYF 121200Z 36004KT 15SM BKN100 M01/M07 A3036 RMK AC7 SLP295
Conditions at: CYYF (PENTICTON AIRPOR, BC, CA) observed 1200 UTC 12 April 2021
Temperature: -1.0°C (30°F)
Dewpoint: -7.0°C (19°F) [RH = 64%]
Pressure (altimeter): 30.36 inches Hg (1028.2 mb)
[Sea-level pressure: 1029.5 mb]
Winds: from the N (360 degrees) at 5 MPH (4 knots; 2.1 m/s)
Visibility: 15 miles (24 km)
Ceiling: 10000 feet AGL
Clouds: broken clouds at 10000 feet AGL
Weather: no significant weather observed at this time

METAR text: CYYF 121100Z 34003KT 15SM FEW100 M02/M08 A3036 RMK AC2 SLP294
Conditions at: CYYF (PENTICTON AIRPOR, BC, CA) observed 1100 UTC 12 April 2021
Temperature: -2.0°C (28°F)
Dewpoint: -8.0°C (18°F) [RH = 63%]
Pressure (altimeter): 30.36 inches Hg (1028.2 mb)
[Sea-level pressure: 1029.4 mb]
Winds: from the NNW (340 degrees) at 3 MPH (3 knots; 1.5 m/s)
Visibility: 15 miles (24 km)
Ceiling: at least 12,000 feet AGL
Clouds: few clouds at 10000 feet AGL
Weather: no significant weather observed at this time

Forecast for: CYYF (PENTICTON AIRPOR, BC, CA)
Text: TAF CYYF 121238Z 1213/1301 36005KT P6SM SCT100
Forecast period: 1300 to 1600 UTC 12 April 2021
Forecast type: FROM: standard forecast or significant change
Winds: from the N (360 degrees) at 6 MPH (5 knots; 2.6 m/s)
Visibility: 6 or more miles (10+ km)
Ceiling: at least 12,000 feet AGL
Clouds: scattered clouds at 10000 feet AGL
Weather: no significant weather forecast for this period
Text: TEMPO 1213/1218 BKN090
Forecast period: 1300 to 1800 UTC 12 April 2021
Forecast type: TEMPORARY: The following changes expected for less than half the time period
Visibility: missing
Ceiling: 9000 feet AGL
Clouds: broken clouds at 9000 feet AGL
Weather: no significant weather forecast for this period
Text: BECMG 1216/1218 32012KT RMK NXT FCST BY 121900Z
Forecast period: 1600 UTC 12 April 2021 to 0100 UTC 13 April 2021
Forecast type: BECOMING: Conditions expected to become as follows by 1800 UTC 12 April 2021
Winds: from the NW (320 degrees) at 14 MPH (12 knots; 6.2 m/s)
Visibility: 6 or more miles (10+ km)
Ceiling: at least 12,000 feet AGL
Clouds: scattered clouds at 10000 feet AGL
Weather: no significant weather forecast for this period